createdAt,value
2019-05-22T00:00:24.467Z,10.80
2019-05-22T00:03:01.410Z,10.48
2019-05-22T00:05:36.888Z,10.30
2019-05-22T00:08:13.357Z,12.28
2019-05-22T00:10:48.892Z,11.65
2019-05-22T00:13:25.752Z,10.45
2019-05-22T00:16:00.770Z,10.30
2019-05-22T00:18:36.513Z,10.48
2019-05-22T00:21:11.913Z,10.88
2019-05-22T00:23:47.500Z,10.28
2019-05-22T00:26:23.633Z,9.90
2019-05-22T00:29:02.164Z,10.55
2019-05-22T00:31:37.585Z,10.00
2019-05-22T00:34:14.977Z,9.25
2019-05-22T00:36:50.363Z,9.63
2019-05-22T00:39:26.008Z,10.90
2019-05-22T00:42:01.301Z,10.58
2019-05-22T00:44:36.993Z,10.32
2019-05-22T00:47:14.651Z,9.65
2019-05-22T00:49:52.072Z,9.93
2019-05-22T00:52:45.386Z,9.45
2019-05-22T00:55:28.398Z,8.95
2019-05-22T00:58:04.639Z,9.60
2019-05-22T01:00:51.271Z,9.60
2019-05-22T01:03:27.233Z,8.53
2019-05-22T01:06:03.157Z,8.98
2019-05-22T01:08:39.610Z,8.70
2019-05-22T01:11:16.728Z,8.75
2019-05-22T01:13:51.951Z,8.58
2019-05-22T01:16:27.343Z,9.05
2019-05-22T01:19:02.137Z,9.28
2019-05-22T01:21:38.177Z,9.20
2019-05-22T01:24:14.861Z,9.50
2019-05-22T01:26:53.001Z,9.58
2019-05-22T01:29:28.491Z,10.85
2019-05-22T01:32:08.253Z,11.38
2019-05-22T01:34:43.561Z,11.75
2019-05-22T01:37:19.759Z,11.38
2019-05-22T01:40:14.394Z,10.53
2019-05-22T01:45:26.233Z,11.43
2019-05-22T01:48:06.391Z,10.13
2019-05-22T01:50:50.463Z,10.88
2019-05-22T01:53:26.646Z,11.05
2019-05-22T01:56:01.449Z,10.90
2019-05-22T01:58:39.007Z,10.43
2019-05-22T02:01:17.786Z,10.32
2019-05-22T02:03:53.859Z,12.00
2019-05-22T02:06:30.885Z,12.68
2019-05-22T02:09:35.456Z,10.70
2019-05-22T02:12:20.013Z,10.90
2019-05-22T02:14:55.955Z,10.70
2019-05-22T02:17:34.813Z,11.08
2019-05-22T02:20:13.866Z,10.25
2019-05-22T02:22:51.125Z,11.18
2019-05-22T02:25:28.386Z,10.68
2019-05-22T02:28:04.773Z,10.78
2019-05-22T02:30:40.748Z,10.80
2019-05-22T02:33:17.199Z,10.48
2019-05-22T02:35:52.925Z,12.50
2019-05-22T02:38:27.283Z,11.40
2019-05-22T02:41:04.240Z,11.85
2019-05-22T02:43:40.859Z,12.53
2019-05-22T02:46:17.192Z,12.95
2019-05-22T02:48:53.782Z,12.30
2019-05-22T02:51:29.223Z,12.10
2019-05-22T02:54:05.870Z,11.83
2019-05-22T02:56:41.237Z,11.80
2019-05-22T02:59:16.850Z,12.00
2019-05-22T03:01:59.608Z,13.30
2019-05-22T03:04:55.509Z,14.60
2019-05-22T03:07:30.397Z,13.60
2019-05-22T03:10:05.190Z,12.70
2019-05-22T03:12:40.668Z,11.97
2019-05-22T03:15:17.781Z,11.33
2019-05-22T03:17:52.897Z,10.65
2019-05-22T03:20:29.119Z,9.63
2019-05-22T03:23:20.718Z,9.45
2019-05-22T03:25:56.111Z,8.30
2019-05-22T03:28:32.096Z,8.85
2019-05-22T03:31:08.559Z,9.20
2019-05-22T03:33:44.972Z,7.78
2019-05-22T03:36:40.308Z,7.70
2019-05-22T03:39:15.756Z,8.03
2019-05-22T03:41:51.867Z,7.53
2019-05-22T03:44:28.390Z,7.70
2019-05-22T03:47:04.171Z,7.47
2019-05-22T03:49:40.156Z,7.67
2019-05-22T03:52:25.958Z,6.62
2019-05-22T03:55:04.694Z,7.10
2019-05-22T03:57:39.993Z,7.05
2019-05-22T04:00:20.427Z,7.28
2019-05-22T04:02:56.528Z,7.75
2019-05-22T04:05:32.434Z,7.75
2019-05-22T04:08:08.271Z,7.33
2019-05-22T04:11:00.999Z,7.12
2019-05-22T04:13:37.063Z,7.35
2019-05-22T04:16:13.912Z,7.47
2019-05-22T04:18:52.109Z,7.30
2019-05-22T04:21:33.537Z,7.75
2019-05-22T04:24:07.949Z,7.58
2019-05-22T04:26:45.350Z,6.87
2019-05-22T04:29:22.414Z,7.03
2019-05-22T04:32:01.725Z,6.87
2019-05-22T04:34:57.190Z,6.60
2019-05-22T04:37:32.895Z,6.75
2019-05-22T04:40:29.048Z,6.33
2019-05-22T04:43:07.127Z,6.45
2019-05-22T04:45:43.574Z,6.83
2019-05-22T04:48:19.071Z,6.22
2019-05-22T04:50:56.093Z,6.67
2019-05-22T04:53:32.259Z,6.40
2019-05-22T04:56:06.626Z,6.92
2019-05-22T04:58:42.210Z,5.92
2019-05-22T05:01:20.124Z,6.10
2019-05-22T05:03:56.994Z,6.37
2019-05-22T05:06:33.246Z,6.25
2019-05-22T05:09:10.195Z,6.03
2019-05-22T05:11:45.700Z,6.53
2019-05-22T05:14:20.270Z,6.37
2019-05-22T05:16:55.415Z,6.65
2019-05-22T05:19:34.460Z,6.00
2019-05-22T05:22:09.329Z,6.83
2019-05-22T05:24:44.700Z,6.17
2019-05-22T05:27:20.339Z,6.62
2019-05-22T05:29:56.853Z,6.17
2019-05-22T05:35:25.261Z,6.60
2019-05-22T05:38:00.759Z,6.97
2019-05-22T05:40:38.260Z,6.45
2019-05-22T05:43:15.896Z,6.67
2019-05-22T05:45:52.763Z,7.05
2019-05-22T05:48:28.834Z,7.22
2019-05-22T05:51:12.137Z,6.67
2019-05-22T05:54:01.620Z,6.67
2019-05-22T05:56:38.712Z,6.72
2019-05-22T05:59:14.242Z,7.50
2019-05-22T06:01:50.248Z,7.45
2019-05-22T06:04:34.821Z,7.72
2019-05-22T06:07:07.865Z,7.62
2019-05-22T06:09:44.064Z,7.15
2019-05-22T06:12:20.171Z,7.53
2019-05-22T06:14:57.207Z,7.75
2019-05-22T06:18:00.353Z,7.47
2019-05-22T06:21:01.062Z,7.50
2019-05-22T06:23:37.470Z,8.08
2019-05-22T06:26:16.312Z,7.70
2019-05-22T06:28:52.043Z,7.25
2019-05-22T06:31:42.663Z,8.15
2019-05-22T06:34:18.620Z,7.90
2019-05-22T06:36:55.132Z,7.92
2019-05-22T06:39:30.200Z,7.92
2019-05-22T06:42:07.678Z,7.70
2019-05-22T06:44:44.296Z,7.00
2019-05-22T06:47:22.221Z,7.87
2019-05-22T06:49:58.774Z,7.40
2019-05-22T06:52:33.517Z,7.67
2019-05-22T06:55:10.741Z,7.40
2019-05-22T06:57:46.220Z,7.37
2019-05-22T07:00:23.783Z,6.72
2019-05-22T07:02:59.465Z,7.40
2019-05-22T07:05:35.352Z,7.08
2019-05-22T07:08:12.623Z,6.67
2019-05-22T07:10:48.251Z,6.83
2019-05-22T07:13:24.122Z,6.40
2019-05-22T07:16:02.445Z,6.83
2019-05-22T07:18:42.812Z,6.78
2019-05-22T07:21:17.932Z,6.90
2019-05-22T07:23:53.446Z,7.17
2019-05-22T07:26:28.059Z,6.53
2019-05-22T07:29:05.175Z,6.30
2019-05-22T07:31:42.207Z,6.42
2019-05-22T07:34:20.426Z,6.08
2019-05-22T07:36:54.979Z,6.15
2019-05-22T07:39:29.555Z,6.53
2019-05-22T07:42:04.644Z,6.25
2019-05-22T07:44:39.738Z,6.03
2019-05-22T07:47:16.394Z,5.67
2019-05-22T07:49:56.956Z,6.47
2019-05-22T07:52:32.962Z,6.78
2019-05-22T07:55:08.931Z,6.67
2019-05-22T07:57:45.743Z,6.22
2019-05-22T08:00:24.461Z,5.90
2019-05-22T08:03:10.698Z,5.97
2019-05-22T08:05:52.152Z,6.12
2019-05-22T08:08:29.309Z,5.90
2019-05-22T08:11:07.626Z,6.35
2019-05-22T08:13:43.804Z,5.85
2019-05-22T08:16:24.963Z,5.92
2019-05-22T08:18:59.903Z,6.35
2019-05-22T08:21:39.141Z,6.42
2019-05-22T08:24:14.843Z,6.15
2019-05-22T08:26:54.285Z,6.25
2019-05-22T08:29:30.448Z,6.28
2019-05-22T08:32:07.545Z,6.35
2019-05-22T08:34:43.893Z,6.80
2019-05-22T08:37:26.271Z,6.97
2019-05-22T08:40:03.550Z,5.75
2019-05-22T08:42:45.808Z,6.75
2019-05-22T08:45:23.644Z,6.78
2019-05-22T08:47:59.629Z,6.45
2019-05-22T08:50:39.869Z,6.20
2019-05-22T08:53:18.558Z,6.90
2019-05-22T08:55:55.291Z,6.45
2019-05-22T08:58:37.781Z,6.67
2019-05-22T09:01:22.039Z,6.67
2019-05-22T09:03:56.782Z,6.37
2019-05-22T09:06:31.659Z,6.22
2019-05-22T09:09:07.412Z,6.45
2019-05-22T09:11:43.454Z,7.03
2019-05-22T09:14:19.048Z,7.50
2019-05-22T09:16:56.846Z,6.53
2019-05-22T09:19:33.105Z,6.80
2019-05-22T09:22:09.000Z,8.90
2019-05-22T09:24:46.366Z,8.80
2019-05-22T09:27:22.975Z,9.90
2019-05-22T09:30:18.896Z,9.33
2019-05-22T09:32:53.462Z,9.83
2019-05-22T09:35:29.463Z,9.28
2019-05-22T09:38:04.962Z,9.33
2019-05-22T09:40:39.484Z,9.20
2019-05-22T09:43:13.864Z,8.80
2019-05-22T09:45:49.369Z,9.33
2019-05-22T09:48:25.385Z,8.95
2019-05-22T09:51:01.908Z,9.38
2019-05-22T09:53:37.690Z,9.43
2019-05-22T09:56:13.401Z,8.95
2019-05-22T09:58:49.574Z,8.58
2019-05-22T10:01:25.193Z,8.50
2019-05-22T10:04:01.544Z,8.55
2019-05-22T10:06:36.240Z,8.60
2019-05-22T10:09:12.575Z,8.45
2019-05-22T10:11:51.346Z,8.18
2019-05-22T10:14:26.816Z,8.58
2019-05-22T10:17:07.788Z,8.90
2019-05-22T10:19:43.521Z,7.67
2019-05-22T10:22:19.463Z,8.90
2019-05-22T10:25:13.473Z,8.13
2019-05-22T10:27:32.154Z,7.55
2019-05-22T10:30:07.909Z,8.00
2019-05-22T10:32:45.219Z,8.13
2019-05-22T10:35:23.801Z,7.33
2019-05-22T10:38:02.946Z,7.70
2019-05-22T10:40:38.613Z,7.72
2019-05-22T10:43:12.905Z,7.72
2019-05-22T10:45:47.922Z,7.05
2019-05-22T10:48:24.047Z,7.22
2019-05-22T10:51:00.767Z,7.40
2019-05-22T10:53:36.799Z,7.92
2019-05-22T10:56:11.965Z,7.80
2019-05-22T10:58:48.450Z,6.12
2019-05-22T11:01:30.909Z,6.60
2019-05-22T11:04:06.049Z,6.40
2019-05-22T11:06:46.578Z,6.20
2019-05-22T11:09:22.240Z,6.37
2019-05-22T11:11:57.269Z,6.62
2019-05-22T11:14:33.735Z,6.80
2019-05-22T11:19:51.141Z,6.90
2019-05-22T11:22:26.847Z,6.67
2019-05-22T11:25:01.895Z,6.58
2019-05-22T11:27:36.683Z,6.42
2019-05-22T11:30:15.661Z,6.65
2019-05-22T11:32:50.787Z,6.00
2019-05-22T11:35:26.593Z,6.65
2019-05-22T11:38:02.266Z,6.72
2019-05-22T11:43:30.702Z,6.42
2019-05-22T11:46:09.874Z,6.25
2019-05-22T11:48:46.479Z,6.50
2019-05-22T11:51:24.903Z,6.42
2019-05-22T11:54:09.286Z,6.05
2019-05-22T11:56:39.845Z,5.92
2019-05-22T11:59:16.198Z,5.80
2019-05-22T12:01:53.357Z,5.85
2019-05-22T12:04:46.467Z,7.10
2019-05-22T12:07:08.841Z,7.50
2019-05-22T12:09:43.452Z,6.55
2019-05-22T12:12:19.018Z,6.50
2019-05-22T12:14:54.018Z,7.10
2019-05-22T12:17:37.921Z,6.95
2019-05-22T12:20:08.530Z,6.72
2019-05-22T12:22:53.099Z,6.67
2019-05-22T12:25:29.727Z,7.05
2019-05-22T12:28:07.377Z,7.15
2019-05-22T12:30:41.856Z,7.33
2019-05-22T12:33:16.975Z,7.10
2019-05-22T12:35:55.003Z,8.73
2019-05-22T12:38:30.464Z,10.93
2019-05-22T12:41:09.359Z,14.25
2019-05-22T12:43:48.719Z,14.07
2019-05-22T12:46:39.337Z,15.78
2019-05-22T12:49:16.722Z,17.73
2019-05-22T12:51:52.268Z,16.00
2019-05-22T12:54:43.411Z,16.52
2019-05-22T12:57:06.566Z,15.60
2019-05-22T12:59:44.765Z,14.98
2019-05-22T13:02:21.457Z,15.13
2019-05-22T13:04:56.440Z,15.38
2019-05-22T13:07:32.113Z,15.53
2019-05-22T13:10:08.291Z,15.80
2019-05-22T13:12:42.982Z,14.90
2019-05-22T13:15:17.946Z,14.00
2019-05-22T13:17:54.798Z,13.40
2019-05-22T13:20:42.577Z,11.93
2019-05-22T13:23:11.017Z,12.13
2019-05-22T13:25:48.130Z,12.63
2019-05-22T13:28:23.821Z,12.13
2019-05-22T13:31:00.771Z,11.33
2019-05-22T13:33:37.793Z,10.80
2019-05-22T13:36:14.648Z,11.05
2019-05-22T13:38:51.378Z,10.38
2019-05-22T13:41:26.307Z,9.63
2019-05-22T13:44:03.555Z,10.05
2019-05-22T13:46:39.672Z,9.48
2019-05-22T13:49:17.363Z,8.88
2019-05-22T13:52:09.927Z,9.50
2019-05-22T13:54:48.167Z,9.63
2019-05-22T13:57:26.146Z,9.55
2019-05-22T14:00:09.378Z,9.05
2019-05-22T14:05:40.067Z,8.73
2019-05-22T14:08:14.972Z,8.03
2019-05-22T14:10:51.198Z,8.00
2019-05-22T14:13:31.699Z,7.47
2019-05-22T14:16:19.151Z,8.23
2019-05-22T14:18:59.362Z,8.25
2019-05-22T14:21:36.446Z,8.28
2019-05-22T14:24:12.022Z,7.72
2019-05-22T14:26:47.977Z,8.30
2019-05-22T14:29:22.250Z,7.78
2019-05-22T14:31:58.085Z,8.08
2019-05-22T14:34:33.339Z,8.30
2019-05-22T14:37:09.755Z,8.25
2019-05-22T14:39:50.153Z,8.15
2019-05-22T14:42:26.281Z,8.20
2019-05-22T14:45:02.992Z,7.75
2019-05-22T14:47:41.075Z,7.78
2019-05-22T14:50:19.101Z,7.95
2019-05-22T14:52:55.327Z,7.85
2019-05-22T14:55:32.038Z,7.58
2019-05-22T14:58:10.811Z,8.23
2019-05-22T15:03:45.355Z,8.23
2019-05-22T15:09:13.226Z,7.62
2019-05-22T15:11:52.231Z,7.65
2019-05-22T15:14:27.214Z,7.67
2019-05-22T15:19:56.805Z,7.78
2019-05-22T15:22:33.914Z,7.40
2019-05-22T15:28:06.006Z,7.78
2019-05-22T15:30:45.112Z,7.75
2019-05-22T15:33:22.597Z,7.55
2019-05-22T15:35:58.215Z,8.55
2019-05-22T15:38:34.560Z,7.42
2019-05-22T15:41:10.351Z,8.23
2019-05-22T15:43:55.807Z,7.72
2019-05-22T15:46:35.469Z,7.72
2019-05-22T15:49:12.868Z,7.08
2019-05-22T15:51:50.829Z,7.80
2019-05-22T15:54:28.904Z,7.70
2019-05-22T15:57:09.743Z,7.78
2019-05-22T15:59:49.093Z,7.22
2019-05-22T16:02:27.617Z,8.10
2019-05-22T16:05:03.096Z,7.45
2019-05-22T16:07:43.892Z,7.67
2019-05-22T16:10:21.876Z,7.75
2019-05-22T16:12:59.862Z,7.90
2019-05-22T16:15:40.838Z,7.65
2019-05-22T16:18:20.938Z,7.72
2019-05-22T16:20:58.492Z,7.20
2019-05-22T16:23:43.992Z,7.70
2019-05-22T16:26:22.481Z,7.50
2019-05-22T16:29:06.977Z,7.87
2019-05-22T16:31:47.479Z,7.42
2019-05-22T16:34:27.805Z,7.92
2019-05-22T16:37:04.134Z,7.53
2019-05-22T16:39:41.391Z,7.87
2019-05-22T16:42:29.029Z,7.75
2019-05-22T16:45:04.066Z,8.05
2019-05-22T16:47:41.448Z,7.42
2019-05-22T16:50:18.023Z,7.55
2019-05-22T16:53:11.744Z,7.92
2019-05-22T16:55:47.736Z,7.80
2019-05-22T16:58:24.621Z,7.85
2019-05-22T17:04:00.698Z,8.20
2019-05-22T17:06:39.642Z,7.50
2019-05-22T17:09:15.537Z,7.55
2019-05-22T17:11:50.648Z,7.95
2019-05-22T17:14:32.118Z,8.28
2019-05-22T17:17:11.376Z,7.70
2019-05-22T17:19:48.182Z,7.90
2019-05-22T17:22:24.408Z,8.28
2019-05-22T17:25:03.753Z,7.80
2019-05-22T17:27:39.705Z,8.18
2019-05-22T17:30:20.511Z,8.40
2019-05-22T17:32:53.449Z,7.95
2019-05-22T17:35:30.096Z,8.13
2019-05-22T17:38:06.276Z,7.90
2019-05-22T17:40:45.214Z,8.30
2019-05-22T17:43:21.599Z,7.67
2019-05-22T17:45:58.239Z,8.15
2019-05-22T17:48:34.316Z,7.92
2019-05-22T17:51:15.985Z,7.75
2019-05-22T17:53:54.197Z,7.83
2019-05-22T17:56:31.174Z,8.30
2019-05-22T17:59:10.105Z,8.35
2019-05-22T18:01:48.630Z,7.97
2019-05-22T18:04:24.007Z,8.05
2019-05-22T18:06:59.271Z,7.97
2019-05-22T18:09:35.190Z,7.55
2019-05-22T18:12:12.951Z,7.95
2019-05-22T18:14:50.555Z,7.87
2019-05-22T18:17:25.966Z,7.78
2019-05-22T18:20:00.756Z,8.45
2019-05-22T18:22:36.653Z,7.78
2019-05-22T18:25:12.147Z,7.80
2019-05-22T18:27:50.628Z,7.70
2019-05-22T18:30:28.594Z,7.87
2019-05-22T18:33:03.043Z,8.33
2019-05-22T18:35:38.582Z,8.45
2019-05-22T18:38:12.868Z,8.03
2019-05-22T18:40:48.327Z,7.60
2019-05-22T18:43:24.063Z,8.38
2019-05-22T18:45:59.527Z,8.40
2019-05-22T18:48:34.874Z,8.63
2019-05-22T18:51:10.060Z,8.18
2019-05-22T18:53:44.230Z,8.60
2019-05-22T18:56:19.809Z,8.38
2019-05-22T18:58:54.908Z,7.75
2019-05-22T19:01:30.108Z,8.25
2019-05-22T19:04:05.531Z,8.08
2019-05-22T19:06:40.228Z,8.18
2019-05-22T19:09:15.916Z,7.35
2019-05-22T19:11:51.880Z,8.25
2019-05-22T19:14:27.144Z,8.55
2019-05-22T19:17:03.844Z,8.93
2019-05-22T19:19:40.124Z,7.90
2019-05-22T19:22:33.806Z,8.00
2019-05-22T19:25:09.765Z,8.05
2019-05-22T19:27:45.201Z,8.40
2019-05-22T19:30:20.986Z,8.25
2019-05-22T19:32:56.678Z,8.18
2019-05-22T19:35:31.410Z,8.68
2019-05-22T19:38:07.576Z,7.87
2019-05-22T19:40:41.846Z,7.92
2019-05-22T19:43:16.183Z,8.13
2019-05-22T19:45:52.247Z,8.15
2019-05-22T19:48:26.952Z,8.18
2019-05-22T19:51:02.409Z,8.58
2019-05-22T19:53:37.158Z,8.20
2019-05-22T19:56:11.906Z,8.08
2019-05-22T19:58:46.403Z,8.33
2019-05-22T20:01:21.067Z,7.83
2019-05-22T20:03:55.503Z,8.05
2019-05-22T20:06:30.685Z,8.15
2019-05-22T20:09:08.117Z,8.60
2019-05-22T20:11:44.006Z,8.40
2019-05-22T20:14:20.767Z,8.48
2019-05-22T20:16:56.514Z,8.53
2019-05-22T20:19:31.850Z,7.97
2019-05-22T20:22:09.062Z,8.43
2019-05-22T20:24:43.657Z,8.18
2019-05-22T20:27:17.885Z,8.10
2019-05-22T20:29:55.721Z,8.35
2019-05-22T20:32:31.322Z,8.38
2019-05-22T20:35:08.370Z,8.18
2019-05-22T20:37:47.037Z,8.63
2019-05-22T20:40:23.615Z,8.20
2019-05-22T20:42:58.098Z,8.13
2019-05-22T20:45:33.775Z,8.75
2019-05-22T20:48:14.873Z,8.63
2019-05-22T20:50:50.452Z,8.70
2019-05-22T20:53:25.738Z,7.78
2019-05-22T20:56:01.369Z,8.80
2019-05-22T20:58:38.234Z,8.80
2019-05-22T21:01:18.235Z,8.85
2019-05-22T21:03:53.315Z,8.93
2019-05-22T21:06:30.507Z,8.10
2019-05-22T21:09:08.844Z,8.23
2019-05-22T21:11:45.481Z,9.50
2019-05-22T21:14:20.057Z,9.20
2019-05-22T21:16:55.909Z,9.13
2019-05-22T21:19:31.901Z,9.50
2019-05-22T21:22:09.415Z,8.63
2019-05-22T21:24:44.252Z,8.70
2019-05-22T21:27:18.320Z,8.50
2019-05-22T21:29:55.278Z,9.10
2019-05-22T21:32:31.601Z,8.75
2019-05-22T21:35:08.477Z,8.55
2019-05-22T21:37:43.855Z,9.33
2019-05-22T21:40:21.860Z,8.95
2019-05-22T21:42:57.832Z,8.98
2019-05-22T21:45:32.819Z,8.30
2019-05-22T21:48:10.059Z,9.00
2019-05-22T21:50:46.194Z,8.30
2019-05-22T21:53:23.394Z,8.23
2019-05-22T21:56:05.340Z,9.20
2019-05-22T21:58:36.500Z,8.80
2019-05-22T22:01:15.367Z,8.80
2019-05-22T22:03:51.430Z,9.18
2019-05-22T22:06:26.683Z,8.50
2019-05-22T22:09:01.457Z,8.85
2019-05-22T22:11:37.960Z,9.15
2019-05-22T22:14:12.549Z,8.80
2019-05-22T22:16:48.332Z,8.30
2019-05-22T22:19:23.892Z,9.08
2019-05-22T22:21:59.599Z,9.58
2019-05-22T22:24:35.274Z,8.93
2019-05-22T22:27:11.436Z,9.10
2019-05-22T22:29:46.728Z,9.00
2019-05-22T22:32:22.997Z,8.83
2019-05-22T22:34:57.633Z,9.05
2019-05-22T22:37:32.710Z,9.90
2019-05-22T22:40:09.473Z,8.98
2019-05-22T22:42:46.749Z,9.18
2019-05-22T22:45:33.536Z,10.13
2019-05-22T22:48:09.700Z,9.35
2019-05-22T22:50:44.704Z,9.25
2019-05-22T22:53:20.579Z,9.93
2019-05-22T22:55:55.718Z,9.20
2019-05-22T22:58:32.304Z,9.75
2019-05-22T23:01:10.730Z,10.00
2019-05-22T23:03:48.606Z,9.50
2019-05-22T23:06:23.123Z,10.25
2019-05-22T23:08:57.500Z,9.40
2019-05-22T23:11:34.189Z,9.78
2019-05-22T23:14:10.324Z,10.05
2019-05-22T23:16:45.599Z,10.00
2019-05-22T23:19:35.892Z,11.22
2019-05-22T23:22:10.127Z,10.90
2019-05-22T23:27:46.684Z,10.43
2019-05-22T23:30:23.242Z,10.53
2019-05-22T23:32:59.963Z,10.38
2019-05-22T23:35:36.321Z,10.38
2019-05-22T23:38:10.546Z,10.05
2019-05-22T23:40:46.909Z,9.93
2019-05-22T23:43:22.602Z,10.65
2019-05-22T23:45:56.689Z,10.53
2019-05-22T23:48:32.492Z,11.03
2019-05-22T23:51:09.019Z,10.28
2019-05-22T23:53:43.647Z,11.43
2019-05-22T23:56:19.572Z,11.18
2019-05-22T23:58:56.645Z,10.93
